sensor_id;sensor_type;location;lat;lon;timestamp;temperature;humidity
76897;SHT30;65856;52.178;21.176;2023-09-07T00:00:14;16.20;73.40
76897;SHT30;65856;52.178;21.176;2023-09-07T00:02:40;16.17;73.36
76897;SHT30;65856;52.178;21.176;2023-09-07T00:05:06;16.15;73.21
76897;SHT30;65856;52.178;21.176;2023-09-07T00:07:33;16.14;73.22
76897;SHT30;65856;52.178;21.176;2023-09-07T00:09:59;16.14;73.35
76897;SHT30;65856;52.178;21.176;2023-09-07T00:12:25;16.15;73.58
76897;SHT30;65856;52.178;21.176;2023-09-07T00:14:55;16.12;73.54
76897;SHT30;65856;52.178;21.176;2023-09-07T00:17:23;16.09;73.28
76897;SHT30;65856;52.178;21.176;2023-09-07T00:19:49;16.04;73.50
76897;SHT30;65856;52.178;21.176;2023-09-07T00:22:16;16.01;73.71
76897;SHT30;65856;52.178;21.176;2023-09-07T00:24:43;15.98;73.63
76897;SHT30;65856;52.178;21.176;2023-09-07T00:27:09;15.97;73.55
76897;SHT30;65856;52.178;21.176;2023-09-07T00:29:37;15.94;73.31
76897;SHT30;65856;52.178;21.176;2023-09-07T00:32:03;15.83;73.27
76897;SHT30;65856;52.178;21.176;2023-09-07T00:34:30;15.82;73.54
76897;SHT30;65856;52.178;21.176;2023-09-07T00:36:56;15.84;73.61
76897;SHT30;65856;52.178;21.176;2023-09-07T00:39:22;15.84;73.63
76897;SHT30;65856;52.178;21.176;2023-09-07T00:41:47;15.87;73.73
76897;SHT30;65856;52.178;21.176;2023-09-07T00:44:13;15.88;73.68
76897;SHT30;65856;52.178;21.176;2023-09-07T00:46:38;15.88;73.37
76897;SHT30;65856;52.178;21.176;2023-09-07T00:49:04;15.81;73.23
76897;SHT30;65856;52.178;21.176;2023-09-07T00:51:30;15.74;73.31
76897;SHT30;65856;52.178;21.176;2023-09-07T00:53:56;15.73;73.50
76897;SHT30;65856;52.178;21.176;2023-09-07T00:56:24;15.74;73.70
76897;SHT30;65856;52.178;21.176;2023-09-07T00:58:52;15.76;73.81
76897;SHT30;65856;52.178;21.176;2023-09-07T01:01:19;15.79;73.77
76897;SHT30;65856;52.178;21.176;2023-09-07T01:03:50;15.78;73.40
76897;SHT30;65856;52.178;21.176;2023-09-07T01:06:18;15.71;73.47
76897;SHT30;65856;52.178;21.176;2023-09-07T01:08:59;15.69;73.65
76897;SHT30;65856;52.178;21.176;2023-09-07T01:11:37;15.69;73.73
76897;SHT30;65856;52.178;21.176;2023-09-07T01:14:03;15.67;73.88
76897;SHT30;65856;52.178;21.176;2023-09-07T01:16:29;15.67;73.90
76897;SHT30;65856;52.178;21.176;2023-09-07T01:19:00;15.66;73.80
76897;SHT30;65856;52.178;21.176;2023-09-07T01:21:27;15.67;73.89
76897;SHT30;65856;52.178;21.176;2023-09-07T01:24:00;15.68;73.80
76897;SHT30;65856;52.178;21.176;2023-09-07T01:26:29;15.65;73.61
76897;SHT30;65856;52.178;21.176;2023-09-07T01:28:55;15.63;73.55
76897;SHT30;65856;52.178;21.176;2023-09-07T01:31:21;15.63;73.52
76897;SHT30;65856;52.178;21.176;2023-09-07T01:33:46;15.63;73.53
76897;SHT30;65856;52.178;21.176;2023-09-07T01:36:12;15.61;73.58
76897;SHT30;65856;52.178;21.176;2023-09-07T01:38:37;15.62;73.58
76897;SHT30;65856;52.178;21.176;2023-09-07T01:41:03;15.60;73.45
76897;SHT30;65856;52.178;21.176;2023-09-07T01:43:29;15.57;73.48
76897;SHT30;65856;52.178;21.176;2023-09-07T01:45:54;15.54;73.49
76897;SHT30;65856;52.178;21.176;2023-09-07T01:48:19;15.53;73.44
76897;SHT30;65856;52.178;21.176;2023-09-07T01:50:45;15.50;73.50
76897;SHT30;65856;52.178;21.176;2023-09-07T01:53:11;15.49;73.59
76897;SHT30;65856;52.178;21.176;2023-09-07T01:55:36;15.47;73.46
76897;SHT30;65856;52.178;21.176;2023-09-07T01:58:02;15.45;73.39
76897;SHT30;65856;52.178;21.176;2023-09-07T02:00:28;15.42;73.40
76897;SHT30;65856;52.178;21.176;2023-09-07T02:02:53;15.42;73.40
76897;SHT30;65856;52.178;21.176;2023-09-07T02:05:19;15.41;73.34
76897;SHT30;65856;52.178;21.176;2023-09-07T02:07:46;15.43;73.27
76897;SHT30;65856;52.178;21.176;2023-09-07T02:10:14;15.44;73.17
76897;SHT30;65856;52.178;21.176;2023-09-07T02:12:40;15.41;73.20
76897;SHT30;65856;52.178;21.176;2023-09-07T02:15:06;15.40;73.32
76897;SHT30;65856;52.178;21.176;2023-09-07T02:17:32;15.40;73.20
76897;SHT30;65856;52.178;21.176;2023-09-07T02:19:57;15.30;73.08
76897;SHT30;65856;52.178;21.176;2023-09-07T02:22:23;15.14;73.16
76897;SHT30;65856;52.178;21.176;2023-09-07T02:24:49;15.08;73.48
76897;SHT30;65856;52.178;21.176;2023-09-07T02:27:15;15.08;73.73
76897;SHT30;65856;52.178;21.176;2023-09-07T02:29:41;15.10;73.89
76897;SHT30;65856;52.178;21.176;2023-09-07T02:32:06;15.07;73.87
76897;SHT30;65856;52.178;21.176;2023-09-07T02:34:32;15.05;74.08
76897;SHT30;65856;52.178;21.176;2023-09-07T02:37:01;15.08;74.22
76897;SHT30;65856;52.178;21.176;2023-09-07T02:39:28;15.07;74.33
76897;SHT30;65856;52.178;21.176;2023-09-07T02:41:54;15.08;74.07
76897;SHT30;65856;52.178;21.176;2023-09-07T02:44:19;15.06;73.82
76897;SHT30;65856;52.178;21.176;2023-09-07T02:46:45;15.06;74.00
76897;SHT30;65856;52.178;21.176;2023-09-07T02:49:11;15.06;74.02
76897;SHT30;65856;52.178;21.176;2023-09-07T02:51:36;15.06;73.89
76897;SHT30;65856;52.178;21.176;2023-09-07T02:54:02;15.06;73.94
76897;SHT30;65856;52.178;21.176;2023-09-07T02:56:29;15.08;73.91
76897;SHT30;65856;52.178;21.176;2023-09-07T02:58:55;15.08;73.81
76897;SHT30;65856;52.178;21.176;2023-09-07T03:01:21;15.06;73.66
76897;SHT30;65856;52.178;21.176;2023-09-07T03:03:47;15.04;73.62
76897;SHT30;65856;52.178;21.176;2023-09-07T03:06:14;15.04;73.74
76897;SHT30;65856;52.178;21.176;2023-09-07T03:08:43;15.01;73.64
76897;SHT30;65856;52.178;21.176;2023-09-07T03:11:09;15.00;73.62
76897;SHT30;65856;52.178;21.176;2023-09-07T03:13:36;14.99;73.75
76897;SHT30;65856;52.178;21.176;2023-09-07T03:16:02;14.98;73.71
76897;SHT30;65856;52.178;21.176;2023-09-07T03:18:29;14.94;73.71
76897;SHT30;65856;52.178;21.176;2023-09-07T03:20:58;14.91;73.70
76897;SHT30;65856;52.178;21.176;2023-09-07T03:23:27;14.87;73.70
76897;SHT30;65856;52.178;21.176;2023-09-07T03:25:57;14.84;73.65
76897;SHT30;65856;52.178;21.176;2023-09-07T03:28:24;14.82;73.80
76897;SHT30;65856;52.178;21.176;2023-09-07T03:30:51;14.82;73.85
76897;SHT30;65856;52.178;21.176;2023-09-07T03:33:18;14.82;73.98
76897;SHT30;65856;52.178;21.176;2023-09-07T03:35:44;14.81;74.02
76897;SHT30;65856;52.178;21.176;2023-09-07T03:38:10;14.80;74.02
76897;SHT30;65856;52.178;21.176;2023-09-07T03:40:36;14.80;74.12
76897;SHT30;65856;52.178;21.176;2023-09-07T03:43:02;14.80;74.22
76897;SHT30;65856;52.178;21.176;2023-09-07T03:45:28;14.81;74.21
76897;SHT30;65856;52.178;21.176;2023-09-07T03:47:53;14.83;74.21
76897;SHT30;65856;52.178;21.176;2023-09-07T03:50:19;14.82;74.21
76897;SHT30;65856;52.178;21.176;2023-09-07T03:52:45;14.84;74.28
76897;SHT30;65856;52.178;21.176;2023-09-07T03:55:10;14.85;74.21
76897;SHT30;65856;52.178;21.176;2023-09-07T03:57:36;14.84;74.17
76897;SHT30;65856;52.178;21.176;2023-09-07T04:00:01;14.85;74.24
76897;SHT30;65856;52.178;21.176;2023-09-07T04:02:32;14.85;74.26
76897;SHT30;65856;52.178;21.176;2023-09-07T04:04:58;14.86;74.37
76897;SHT30;65856;52.178;21.176;2023-09-07T04:07:23;14.86;74.18
76897;SHT30;65856;52.178;21.176;2023-09-07T04:09:49;14.84;74.16
76897;SHT30;65856;52.178;21.176;2023-09-07T04:12:15;14.82;74.26
76897;SHT30;65856;52.178;21.176;2023-09-07T04:14:41;14.82;74.22
76897;SHT30;65856;52.178;21.176;2023-09-07T04:17:07;14.83;74.22
76897;SHT30;65856;52.178;21.176;2023-09-07T04:19:33;14.83;74.35
76897;SHT30;65856;52.178;21.176;2023-09-07T04:21:58;14.84;74.46
76897;SHT30;65856;52.178;21.176;2023-09-07T04:24:25;14.84;74.48
76897;SHT30;65856;52.178;21.176;2023-09-07T04:26:57;14.83;74.50
76897;SHT30;65856;52.178;21.176;2023-09-07T04:29:25;14.85;74.59
76897;SHT30;65856;52.178;21.176;2023-09-07T04:31:51;14.85;74.70
76897;SHT30;65856;52.178;21.176;2023-09-07T04:34:17;14.86;74.78
76897;SHT30;65856;52.178;21.176;2023-09-07T04:36:42;14.90;74.80
76897;SHT30;65856;52.178;21.176;2023-09-07T04:39:08;14.92;74.80
76897;SHT30;65856;52.178;21.176;2023-09-07T04:41:33;14.95;74.77
76897;SHT30;65856;52.178;21.176;2023-09-07T04:43:58;15.05;75.36
76897;SHT30;65856;52.178;21.176;2023-09-07T04:46:24;15.16;74.95
76897;SHT30;65856;52.178;21.176;2023-09-07T04:48:50;15.24;74.92
76897;SHT30;65856;52.178;21.176;2023-09-07T04:51:15;15.32;74.94
76897;SHT30;65856;52.178;21.176;2023-09-07T04:53:41;15.37;75.09
76897;SHT30;65856;52.178;21.176;2023-09-07T04:56:07;15.41;75.36
76897;SHT30;65856;52.178;21.176;2023-09-07T04:58:34;15.45;75.61
76897;SHT30;65856;52.178;21.176;2023-09-07T05:01:03;15.48;75.82
76897;SHT30;65856;52.178;21.176;2023-09-07T05:03:31;15.52;75.97
76897;SHT30;65856;52.178;21.176;2023-09-07T05:05:57;15.60;76.10
76897;SHT30;65856;52.178;21.176;2023-09-07T05:08:24;15.67;76.16
76897;SHT30;65856;52.178;21.176;2023-09-07T05:11:00;15.75;76.18
76897;SHT30;65856;52.178;21.176;2023-09-07T05:13:28;15.83;76.20
76897;SHT30;65856;52.178;21.176;2023-09-07T05:15:55;15.91;76.27
76897;SHT30;65856;52.178;21.176;2023-09-07T05:18:23;16.00;76.39
76897;SHT30;65856;52.178;21.176;2023-09-07T05:20:49;16.06;76.53
76897;SHT30;65856;52.178;21.176;2023-09-07T05:23:16;16.13;76.71
76897;SHT30;65856;52.178;21.176;2023-09-07T05:25:49;16.20;76.84
76897;SHT30;65856;52.178;21.176;2023-09-07T05:28:18;16.30;76.71
76897;SHT30;65856;52.178;21.176;2023-09-07T05:30:46;16.40;76.78
76897;SHT30;65856;52.178;21.176;2023-09-07T05:33:12;16.50;76.80
76897;SHT30;65856;52.178;21.176;2023-09-07T05:35:40;16.60;76.85
76897;SHT30;65856;52.178;21.176;2023-09-07T05:38:07;16.70;76.80
76897;SHT30;65856;52.178;21.176;2023-09-07T05:40:34;16.82;76.92
76897;SHT30;65856;52.178;21.176;2023-09-07T05:43:02;16.95;77.07
76897;SHT30;65856;52.178;21.176;2023-09-07T05:45:29;17.07;77.17
76897;SHT30;65856;52.178;21.176;2023-09-07T05:47:56;17.18;77.12
76897;SHT30;65856;52.178;21.176;2023-09-07T05:50:22;17.28;77.06
76897;SHT30;65856;52.178;21.176;2023-09-07T05:52:47;17.36;76.99
76897;SHT30;65856;52.178;21.176;2023-09-07T05:55:13;17.50;77.14
76897;SHT30;65856;52.178;21.176;2023-09-07T05:57:38;17.63;77.28
76897;SHT30;65856;52.178;21.176;2023-09-07T06:00:04;17.74;77.05
76897;SHT30;65856;52.178;21.176;2023-09-07T06:02:31;17.84;76.81
76897;SHT30;65856;52.178;21.176;2023-09-07T06:04:56;17.96;76.66
76897;SHT30;65856;52.178;21.176;2023-09-07T06:07:22;18.10;76.57
76897;SHT30;65856;52.178;21.176;2023-09-07T06:09:47;18.24;76.42
76897;SHT30;65856;52.178;21.176;2023-09-07T06:12:13;18.44;76.00
76897;SHT30;65856;52.178;21.176;2023-09-07T06:14:39;18.60;75.53
76897;SHT30;65856;52.178;21.176;2023-09-07T06:17:04;18.75;75.20
76897;SHT30;65856;52.178;21.176;2023-09-07T06:19:30;18.89;74.90
76897;SHT30;65856;52.178;21.176;2023-09-07T06:21:56;19.03;74.58
76897;SHT30;65856;52.178;21.176;2023-09-07T06:24:22;19.16;74.28
76897;SHT30;65856;52.178;21.176;2023-09-07T06:26:47;19.29;74.11
76897;SHT30;65856;52.178;21.176;2023-09-07T06:29:13;19.43;73.83
76897;SHT30;65856;52.178;21.176;2023-09-07T06:31:38;19.57;73.51
76897;SHT30;65856;52.178;21.176;2023-09-07T06:34:04;19.72;73.11
76897;SHT30;65856;52.178;21.176;2023-09-07T06:36:30;19.88;72.78
76897;SHT30;65856;52.178;21.176;2023-09-07T06:38:56;20.04;72.66
76897;SHT30;65856;52.178;21.176;2023-09-07T06:41:21;20.20;72.88
76897;SHT30;65856;52.178;21.176;2023-09-07T06:43:47;20.40;72.74
76897;SHT30;65856;52.178;21.176;2023-09-07T06:46:12;20.64;71.96
76897;SHT30;65856;52.178;21.176;2023-09-07T06:48:38;20.86;71.59
76897;SHT30;65856;52.178;21.176;2023-09-07T06:51:04;21.08;71.04
76897;SHT30;65856;52.178;21.176;2023-09-07T06:53:31;21.30;70.88
76897;SHT30;65856;52.178;21.176;2023-09-07T06:55:58;21.54;70.64
76897;SHT30;65856;52.178;21.176;2023-09-07T06:58:28;21.81;70.37
76897;SHT30;65856;52.178;21.176;2023-09-07T07:01:00;22.08;69.13
76897;SHT30;65856;52.178;21.176;2023-09-07T07:03:28;22.35;68.57
76897;SHT30;65856;52.178;21.176;2023-09-07T07:05:55;22.61;68.25
76897;SHT30;65856;52.178;21.176;2023-09-07T07:08:22;22.88;67.64
76897;SHT30;65856;52.178;21.176;2023-09-07T07:10:48;23.10;66.95
76897;SHT30;65856;52.178;21.176;2023-09-07T07:13:14;23.29;66.57
76897;SHT30;65856;52.178;21.176;2023-09-07T07:15:41;23.52;65.96
76897;SHT30;65856;52.178;21.176;2023-09-07T07:18:07;23.81;65.17
76897;SHT30;65856;52.178;21.176;2023-09-07T07:20:39;24.09;64.79
76897;SHT30;65856;52.178;21.176;2023-09-07T07:23:07;24.44;64.07
76897;SHT30;65856;52.178;21.176;2023-09-07T07:25:33;24.76;62.93
76897;SHT30;65856;52.178;21.176;2023-09-07T07:27:59;25.03;61.69
76897;SHT30;65856;52.178;21.176;2023-09-07T07:30:30;25.21;60.67
76897;SHT30;65856;52.178;21.176;2023-09-07T07:33:01;25.32;60.57
76897;SHT30;65856;52.178;21.176;2023-09-07T07:35:31;25.45;60.28
76897;SHT30;65856;52.178;21.176;2023-09-07T07:37:59;25.73;59.78
76897;SHT30;65856;52.178;21.176;2023-09-07T07:40:26;25.94;58.92
76897;SHT30;65856;52.178;21.176;2023-09-07T07:42:52;26.13;58.62
76897;SHT30;65856;52.178;21.176;2023-09-07T07:45:18;26.34;58.36
76897;SHT30;65856;52.178;21.176;2023-09-07T07:47:50;26.38;58.13
76897;SHT30;65856;52.178;21.176;2023-09-07T07:50:18;26.38;57.94
76897;SHT30;65856;52.178;21.176;2023-09-07T07:52:43;26.46;57.98
76897;SHT30;65856;52.178;21.176;2023-09-07T07:55:10;26.58;57.67
76897;SHT30;65856;52.178;21.176;2023-09-07T07:57:36;26.71;57.18
76897;SHT30;65856;52.178;21.176;2023-09-07T08:00:02;26.86;57.10
76897;SHT30;65856;52.178;21.176;2023-09-07T08:02:31;27.09;56.65
76897;SHT30;65856;52.178;21.176;2023-09-07T08:04:57;27.32;56.01
76897;SHT30;65856;52.178;21.176;2023-09-07T08:07:23;27.52;55.19
76897;SHT30;65856;52.178;21.176;2023-09-07T08:09:50;27.68;55.19
76897;SHT30;65856;52.178;21.176;2023-09-07T08:12:16;27.90;54.95
76897;SHT30;65856;52.178;21.176;2023-09-07T08:14:42;28.08;54.33
76897;SHT30;65856;52.178;21.176;2023-09-07T08:17:08;28.14;54.24
76897;SHT30;65856;52.178;21.176;2023-09-07T08:19:34;28.20;52.92
76897;SHT30;65856;52.178;21.176;2023-09-07T08:21:59;28.32;52.46
76897;SHT30;65856;52.178;21.176;2023-09-07T08:24:28;28.48;52.52
76897;SHT30;65856;52.178;21.176;2023-09-07T08:26:54;28.66;52.61
76897;SHT30;65856;52.178;21.176;2023-09-07T08:29:21;28.77;51.79
76897;SHT30;65856;52.178;21.176;2023-09-07T08:31:50;28.80;50.79
76897;SHT30;65856;52.178;21.176;2023-09-07T08:34:15;28.88;50.34
76897;SHT30;65856;52.178;21.176;2023-09-07T08:36:41;28.96;49.90
76897;SHT30;65856;52.178;21.176;2023-09-07T08:39:07;29.04;50.03
76897;SHT30;65856;52.178;21.176;2023-09-07T08:41:39;29.05;49.83
76897;SHT30;65856;52.178;21.176;2023-09-07T08:44:11;29.06;49.55
76897;SHT30;65856;52.178;21.176;2023-09-07T08:46:41;29.11;49.96
76897;SHT30;65856;52.178;21.176;2023-09-07T08:49:08;29.14;50.21
76897;SHT30;65856;52.178;21.176;2023-09-07T08:51:36;29.18;49.92
76897;SHT30;65856;52.178;21.176;2023-09-07T08:54:04;29.27;49.59
76897;SHT30;65856;52.178;21.176;2023-09-07T08:56:32;29.33;50.08
76897;SHT30;65856;52.178;21.176;2023-09-07T08:58:59;29.36;49.94
76897;SHT30;65856;52.178;21.176;2023-09-07T09:01:24;29.42;49.70
76897;SHT30;65856;52.178;21.176;2023-09-07T09:03:50;29.49;49.91
76897;SHT30;65856;52.178;21.176;2023-09-07T09:06:16;29.54;50.03
76897;SHT30;65856;52.178;21.176;2023-09-07T09:08:46;29.56;49.59
76897;SHT30;65856;52.178;21.176;2023-09-07T09:11:15;29.50;49.57
76897;SHT30;65856;52.178;21.176;2023-09-07T09:13:43;29.50;49.84
76897;SHT30;65856;52.178;21.176;2023-09-07T09:16:09;29.52;49.83
76897;SHT30;65856;52.178;21.176;2023-09-07T09:18:36;29.55;49.20
76897;SHT30;65856;52.178;21.176;2023-09-07T09:21:03;29.55;48.92
76897;SHT30;65856;52.178;21.176;2023-09-07T09:23:30;29.54;48.33
76897;SHT30;65856;52.178;21.176;2023-09-07T09:26:01;29.58;48.87
76897;SHT30;65856;52.178;21.176;2023-09-07T09:28:33;29.61;48.76
76897;SHT30;65856;52.178;21.176;2023-09-07T09:31:00;29.54;49.09
76897;SHT30;65856;52.178;21.176;2023-09-07T09:33:30;29.52;48.45
76897;SHT30;65856;52.178;21.176;2023-09-07T09:35:58;29.53;47.83
76897;SHT30;65856;52.178;21.176;2023-09-07T09:38:24;29.57;47.80
76897;SHT30;65856;52.178;21.176;2023-09-07T09:40:51;29.55;47.81
76897;SHT30;65856;52.178;21.176;2023-09-07T09:43:18;29.58;48.19
76897;SHT30;65856;52.178;21.176;2023-09-07T09:45:46;29.56;48.26
76897;SHT30;65856;52.178;21.176;2023-09-07T09:48:12;29.54;47.66
76897;SHT30;65856;52.178;21.176;2023-09-07T09:50:38;29.52;47.69
76897;SHT30;65856;52.178;21.176;2023-09-07T09:53:05;29.45;47.37
76897;SHT30;65856;52.178;21.176;2023-09-07T09:55:32;29.41;48.46
76897;SHT30;65856;52.178;21.176;2023-09-07T09:57:59;29.37;48.33
76897;SHT30;65856;52.178;21.176;2023-09-07T10:00:24;29.36;48.17
76897;SHT30;65856;52.178;21.176;2023-09-07T10:05:52;29.18;47.67
76897;SHT30;65856;52.178;21.176;2023-09-07T10:08:19;29.17;47.32
76897;SHT30;65856;52.178;21.176;2023-09-07T10:10:48;29.21;48.01
76897;SHT30;65856;52.178;21.176;2023-09-07T10:13:30;29.18;47.74
76897;SHT30;65856;52.178;21.176;2023-09-07T10:16:05;29.19;47.55
76897;SHT30;65856;52.178;21.176;2023-09-07T10:18:36;29.19;47.46
76897;SHT30;65856;52.178;21.176;2023-09-07T10:21:03;29.18;46.67
76897;SHT30;65856;52.178;21.176;2023-09-07T10:23:39;29.14;47.40
76897;SHT30;65856;52.178;21.176;2023-09-07T10:26:11;29.12;48.24
76897;SHT30;65856;52.178;21.176;2023-09-07T10:28:40;29.07;48.00
76897;SHT30;65856;52.178;21.176;2023-09-07T10:31:15;29.02;47.49
76897;SHT30;65856;52.178;21.176;2023-09-07T10:33:43;28.84;48.51
76897;SHT30;65856;52.178;21.176;2023-09-07T10:36:26;28.66;48.19
76897;SHT30;65856;52.178;21.176;2023-09-07T10:38:54;28.47;48.45
76897;SHT30;65856;52.178;21.176;2023-09-07T10:41:22;28.35;48.25
76897;SHT30;65856;52.178;21.176;2023-09-07T10:43:51;28.31;49.32
76897;SHT30;65856;52.178;21.176;2023-09-07T10:46:23;28.32;48.52
76897;SHT30;65856;52.178;21.176;2023-09-07T10:48:49;28.41;47.73
76897;SHT30;65856;52.178;21.176;2023-09-07T10:51:17;28.56;48.02
76897;SHT30;65856;52.178;21.176;2023-09-07T10:53:46;28.68;48.65
76897;SHT30;65856;52.178;21.176;2023-09-07T10:56:12;28.78;48.64
76897;SHT30;65856;52.178;21.176;2023-09-07T10:58:38;28.85;48.22
76897;SHT30;65856;52.178;21.176;2023-09-07T11:01:06;28.90;48.65
76897;SHT30;65856;52.178;21.176;2023-09-07T11:03:34;28.92;48.45
76897;SHT30;65856;52.178;21.176;2023-09-07T11:08:59;28.67;48.16
76897;SHT30;65856;52.178;21.176;2023-09-07T11:11:30;28.49;48.30
76897;SHT30;65856;52.178;21.176;2023-09-07T11:13:58;28.36;48.66
76897;SHT30;65856;52.178;21.176;2023-09-07T11:16:25;28.17;48.50
76897;SHT30;65856;52.178;21.176;2023-09-07T11:18:52;28.02;48.52
76897;SHT30;65856;52.178;21.176;2023-09-07T11:21:19;27.96;48.82
76897;SHT30;65856;52.178;21.176;2023-09-07T11:23:45;27.87;47.95
76897;SHT30;65856;52.178;21.176;2023-09-07T11:26:11;27.83;47.73
76897;SHT30;65856;52.178;21.176;2023-09-07T11:28:37;27.82;48.29
76897;SHT30;65856;52.178;21.176;2023-09-07T11:31:03;27.79;49.33
76897;SHT30;65856;52.178;21.176;2023-09-07T11:33:31;27.78;49.36
76897;SHT30;65856;52.178;21.176;2023-09-07T11:35:58;27.81;48.75
76897;SHT30;65856;52.178;21.176;2023-09-07T11:38:28;27.86;48.66
76897;SHT30;65856;52.178;21.176;2023-09-07T11:41:00;27.88;48.75
76897;SHT30;65856;52.178;21.176;2023-09-07T11:43:26;27.86;49.15
76897;SHT30;65856;52.178;21.176;2023-09-07T11:45:51;27.83;48.79
76897;SHT30;65856;52.178;21.176;2023-09-07T11:48:17;27.82;48.39
76897;SHT30;65856;52.178;21.176;2023-09-07T11:50:43;27.78;47.92
76897;SHT30;65856;52.178;21.176;2023-09-07T11:53:08;27.70;47.87
76897;SHT30;65856;52.178;21.176;2023-09-07T11:55:34;27.65;47.92
76897;SHT30;65856;52.178;21.176;2023-09-07T11:58:04;27.65;47.71
76897;SHT30;65856;52.178;21.176;2023-09-07T12:00:32;27.70;47.47
76897;SHT30;65856;52.178;21.176;2023-09-07T12:02:58;27.74;47.65
76897;SHT30;65856;52.178;21.176;2023-09-07T12:05:24;27.79;47.82
76897;SHT30;65856;52.178;21.176;2023-09-07T12:07:50;27.84;48.08
76897;SHT30;65856;52.178;21.176;2023-09-07T12:10:15;27.86;47.94
76897;SHT30;65856;52.178;21.176;2023-09-07T12:12:41;27.87;47.05
76897;SHT30;65856;52.178;21.176;2023-09-07T12:15:09;27.86;46.83
76897;SHT30;65856;52.178;21.176;2023-09-07T12:17:38;27.85;46.53
76897;SHT30;65856;52.178;21.176;2023-09-07T12:20:05;27.91;47.08
76897;SHT30;65856;52.178;21.176;2023-09-07T12:22:35;27.92;46.24
76897;SHT30;65856;52.178;21.176;2023-09-07T12:25:06;27.93;46.50
76897;SHT30;65856;52.178;21.176;2023-09-07T12:27:35;27.92;46.82
76897;SHT30;65856;52.178;21.176;2023-09-07T12:30:02;27.91;46.48
76897;SHT30;65856;52.178;21.176;2023-09-07T12:32:31;27.89;46.00
76897;SHT30;65856;52.178;21.176;2023-09-07T12:34:57;27.87;46.09
76897;SHT30;65856;52.178;21.176;2023-09-07T12:37:24;27.78;46.42
76897;SHT30;65856;52.178;21.176;2023-09-07T12:39:50;27.78;45.29
76897;SHT30;65856;52.178;21.176;2023-09-07T12:42:16;27.76;44.25
76897;SHT30;65856;52.178;21.176;2023-09-07T12:44:43;27.74;44.73
76897;SHT30;65856;52.178;21.176;2023-09-07T12:47:09;27.71;45.10
76897;SHT30;65856;52.178;21.176;2023-09-07T12:49:35;27.63;45.26
76897;SHT30;65856;52.178;21.176;2023-09-07T12:52:00;27.56;45.01
76897;SHT30;65856;52.178;21.176;2023-09-07T12:54:28;27.45;46.15
76897;SHT30;65856;52.178;21.176;2023-09-07T12:56:53;27.37;46.66
76897;SHT30;65856;52.178;21.176;2023-09-07T12:59:19;27.30;47.01
76897;SHT30;65856;52.178;21.176;2023-09-07T13:01:44;27.21;47.76
76897;SHT30;65856;52.178;21.176;2023-09-07T13:04:09;27.11;48.81
76897;SHT30;65856;52.178;21.176;2023-09-07T13:06:36;27.05;49.26
76897;SHT30;65856;52.178;21.176;2023-09-07T13:09:02;27.02;48.76
76897;SHT30;65856;52.178;21.176;2023-09-07T13:11:29;27.02;46.77
76897;SHT30;65856;52.178;21.176;2023-09-07T13:13:55;27.06;47.56
76897;SHT30;65856;52.178;21.176;2023-09-07T13:16:20;27.07;47.07
76897;SHT30;65856;52.178;21.176;2023-09-07T13:18:46;27.12;46.47
76897;SHT30;65856;52.178;21.176;2023-09-07T13:21:11;27.14;46.98
76897;SHT30;65856;52.178;21.176;2023-09-07T13:23:37;27.18;46.92
76897;SHT30;65856;52.178;21.176;2023-09-07T13:26:02;27.22;46.00
76897;SHT30;65856;52.178;21.176;2023-09-07T13:28:28;27.24;46.57
76897;SHT30;65856;52.178;21.176;2023-09-07T13:30:53;27.27;46.30
76897;SHT30;65856;52.178;21.176;2023-09-07T13:33:19;27.30;45.72
76897;SHT30;65856;52.178;21.176;2023-09-07T13:35:44;27.34;46.27
76897;SHT30;65856;52.178;21.176;2023-09-07T13:38:10;27.35;47.18
76897;SHT30;65856;52.178;21.176;2023-09-07T13:40:38;27.40;46.78
76897;SHT30;65856;52.178;21.176;2023-09-07T13:43:03;27.42;45.92
76897;SHT30;65856;52.178;21.176;2023-09-07T13:45:29;27.48;45.57
76897;SHT30;65856;52.178;21.176;2023-09-07T13:47:54;27.49;45.52
76897;SHT30;65856;52.178;21.176;2023-09-07T13:50:21;27.47;46.18
76897;SHT30;65856;52.178;21.176;2023-09-07T13:52:47;27.43;46.26
76897;SHT30;65856;52.178;21.176;2023-09-07T13:55:14;27.42;46.20
76897;SHT30;65856;52.178;21.176;2023-09-07T13:57:39;27.44;45.66
76897;SHT30;65856;52.178;21.176;2023-09-07T14:00:05;27.44;45.19
76897;SHT30;65856;52.178;21.176;2023-09-07T14:02:31;27.44;45.43
76897;SHT30;65856;52.178;21.176;2023-09-07T14:04:57;27.43;44.84
76897;SHT30;65856;52.178;21.176;2023-09-07T14:07:24;27.41;45.52
76897;SHT30;65856;52.178;21.176;2023-09-07T14:09:53;27.40;45.56
76897;SHT30;65856;52.178;21.176;2023-09-07T14:12:20;27.42;45.96
76897;SHT30;65856;52.178;21.176;2023-09-07T14:14:46;27.39;46.26
76897;SHT30;65856;52.178;21.176;2023-09-07T14:17:14;27.36;46.09
76897;SHT30;65856;52.178;21.176;2023-09-07T14:19:39;27.33;46.04
76897;SHT30;65856;52.178;21.176;2023-09-07T14:22:05;27.31;46.35
76897;SHT30;65856;52.178;21.176;2023-09-07T14:24:30;27.27;46.17
76897;SHT30;65856;52.178;21.176;2023-09-07T14:26:56;27.25;45.83
76897;SHT30;65856;52.178;21.176;2023-09-07T14:29:21;27.24;46.28
76897;SHT30;65856;52.178;21.176;2023-09-07T14:31:47;27.19;46.59
76897;SHT30;65856;52.178;21.176;2023-09-07T14:34:13;27.17;46.29
76897;SHT30;65856;52.178;21.176;2023-09-07T14:36:39;27.16;45.85
76897;SHT30;65856;52.178;21.176;2023-09-07T14:39:07;27.15;45.21
76897;SHT30;65856;52.178;21.176;2023-09-07T14:41:34;27.15;45.63
76897;SHT30;65856;52.178;21.176;2023-09-07T14:44:01;27.17;46.32
76897;SHT30;65856;52.178;21.176;2023-09-07T14:46:26;27.16;46.82
76897;SHT30;65856;52.178;21.176;2023-09-07T14:48:52;27.15;45.44
76897;SHT30;65856;52.178;21.176;2023-09-07T14:51:18;27.15;45.12
76897;SHT30;65856;52.178;21.176;2023-09-07T14:53:44;27.16;45.16
76897;SHT30;65856;52.178;21.176;2023-09-07T14:56:10;27.16;44.76
76897;SHT30;65856;52.178;21.176;2023-09-07T14:58:38;27.17;45.13
76897;SHT30;65856;52.178;21.176;2023-09-07T15:01:03;27.17;45.76
76897;SHT30;65856;52.178;21.176;2023-09-07T15:03:29;27.17;45.41
76897;SHT30;65856;52.178;21.176;2023-09-07T15:05:56;27.17;46.23
76897;SHT30;65856;52.178;21.176;2023-09-07T15:08:22;27.13;47.32
76897;SHT30;65856;52.178;21.176;2023-09-07T15:10:48;27.12;46.77
76897;SHT30;65856;52.178;21.176;2023-09-07T15:13:14;27.08;46.54
76897;SHT30;65856;52.178;21.176;2023-09-07T15:15:39;27.06;47.23
76897;SHT30;65856;52.178;21.176;2023-09-07T15:18:08;27.04;47.85